Time;durP1;ratioP1;P1;durP2;ratioP2;P2;SDS_P1;SDS_P2;PMS_P1;PMS_P2;Temp;Humidity;BMP_temperature;BMP_pressure;BME280_temperature;BME280_humidity;BME280_pressure;Samples;Min_cycle;Max_cycle;Signal;HPM_P1;HPM_P2
2021/12/04 00:02:09;;;;;;;33.33;13.73;;;;;;;0.24;nan;100464.91;5011577;28;20085;-69
2021/12/04 00:04:57;;;;;;;29.65;14.05;;;;;;;0.18;nan;100458.53;5013081;28;20754;-70
2021/12/04 00:07:42;;;;;;;30.02;13.60;;;;;;;0.28;nan;100478.31;5014047;28;20065;-70
2021/12/04 00:10:30;;;;;;;26.08;13.25;;;;;;;0.16;nan;100452.69;4999382;28;20065;-70
2021/12/04 00:13:16;;;;;;;26.58;13.25;;;;;;;0.24;nan;100472.66;5008964;28;20124;-70
2021/12/04 00:16:02;;;;;;;34.05;14.30;;;;;;;0.21;nan;100466.00;5004514;28;20041;-69
2021/12/04 00:18:48;;;;;;;30.42;14.80;;;;;;;0.21;nan;100462.59;5013378;28;20041;-69
2021/12/04 00:21:33;;;;;;;33.08;14.45;;;;;;;0.17;nan;100462.09;5014085;28;20038;-70
2021/12/04 00:24:20;;;;;;;31.50;14.73;;;;;;;0.17;nan;100476.84;4999903;28;20666;-69
2021/12/04 00:27:06;;;;;;;30.30;15.30;;;;;;;0.16;nan;100470.81;5013303;28;20184;-69
2021/12/04 00:29:52;;;;;;;27.50;14.20;;;;;;;0.06;nan;100454.59;5013462;28;20030;-69
2021/12/04 00:32:41;;;;;;;30.20;14.25;;;;;;;0.06;nan;100459.78;5002943;28;20612;-69
2021/12/04 00:50:26;;;;;;;41.38;17.38;;;;;;;-0.07;nan;100464.59;4993424;28;20518;-68
2021/12/04 00:53:12;;;;;;;35.75;16.52;;;;;;;-0.08;nan;100463.75;4999766;28;20041;-69
2021/12/04 00:55:58;;;;;;;38.95;17.48;;;;;;;-0.19;nan;100450.25;5012118;28;20077;-69
2021/12/04 00:58:43;;;;;;;38.70;17.65;;;;;;;-0.10;nan;100468.25;5013028;28;20045;-70
2021/12/04 01:01:29;;;;;;;35.60;16.13;;;;;;;-0.06;nan;100472.19;5012581;28;20140;-69
2021/12/04 01:04:18;;;;;;;34.58;17.15;;;;;;;-0.19;nan;100448.50;4998388;28;20125;-68
2021/12/04 01:07:04;;;;;;;35.72;16.50;;;;;;;-0.16;nan;100455.97;5011641;28;20061;-68
2021/12/04 01:09:51;;;;;;;36.10;16.80;;;;;;;-0.16;nan;100450.78;5011442;28;20129;-70
2021/12/04 01:12:37;;;;;;;42.05;17.77;;;;;;;-0.21;nan;100447.84;5009529;28;20026;-71
2021/12/04 01:15:23;;;;;;;41.50;18.20;;;;;;;-0.25;nan;100449.91;5013249;28;20554;-69
2021/12/04 01:18:10;;;;;;;40.85;17.52;;;;;;;-0.19;nan;100463.19;5012307;28;20380;-71
2021/12/04 01:20:57;;;;;;;52.67;20.17;;;;;;;-0.27;nan;100449.25;5013442;28;20042;-70
2021/12/04 01:23:42;;;;;;;50.78;20.00;;;;;;;-0.29;nan;100445.19;5010402;28;20034;-71
2021/12/04 01:26:28;;;;;;;43.42;18.95;;;;;;;-0.42;nan;100430.09;5012801;28;20141;-70
2021/12/04 01:29:15;;;;;;;41.00;19.13;;;;;;;-0.30;nan;100452.16;4998546;28;20098;-71
2021/12/04 01:32:02;;;;;;;32.78;16.10;;;;;;;-0.39;nan;100427.19;5012232;28;20383;-70
2021/12/04 01:34:48;;;;;;;34.72;16.80;;;;;;;-0.32;nan;100435.97;5013369;28;20120;-70
2021/12/04 01:37:34;;;;;;;36.40;17.23;;;;;;;-0.51;nan;100408.53;4999347;28;20029;-70
2021/12/04 01:40:20;;;;;;;41.45;20.05;;;;;;;-0.43;nan;100429.28;5012100;28;20041;-71
2021/12/04 01:43:07;;;;;;;48.05;20.63;;;;;;;-0.55;nan;100412.41;5008375;28;20459;-70
2021/12/04 01:45:57;;;;;;;61.75;25.75;;;;;;;-0.58;nan;100415.25;5012175;28;20030;-71
2021/12/04 01:48:43;;;;;;;67.40;27.42;;;;;;;-0.66;nan;100412.63;4994192;28;20388;-72
2021/12/04 01:51:28;;;;;;;61.45;24.70;;;;;;;-0.78;nan;100404.31;4995757;28;20041;-70
2021/12/04 01:54:14;;;;;;;60.08;25.38;;;;;;;-0.68;nan;100423.13;5010915;28;20026;-71
2021/12/04 01:57:00;;;;;;;53.83;22.40;;;;;;;-0.65;nan;100414.25;4997233;28;20056;-69
2021/12/04 01:59:46;;;;;;;53.00;21.27;;;;;;;-0.66;nan;100407.47;5025055;28;20403;-70
2021/12/04 02:02:31;;;;;;;50.17;21.55;;;;;;;-0.68;nan;100389.50;5017074;28;20491;-69
2021/12/04 02:05:17;;;;;;;53.05;21.63;;;;;;;-0.66;nan;100387.59;5009893;28;20041;-70
2021/12/04 02:08:04;;;;;;;49.00;22.05;;;;;;;-0.65;nan;100391.81;5011909;28;20038;-68
2021/12/04 02:10:53;;;;;;;58.15;24.27;;;;;;;-0.68;nan;100393.88;5011165;28;20518;-66
2021/12/04 02:13:38;;;;;;;64.38;26.30;;;;;;;-0.68;nan;100396.47;5011436;28;20038;-67
2021/12/04 02:16:24;;;;;;;50.30;22.60;;;;;;;-0.93;nan;100365.28;5010250;28;20124;-69
2021/12/04 02:19:10;;;;;;;50.45;22.08;;;;;;;-0.73;nan;100396.09;5011765;28;20034;-67
2021/12/04 02:21:56;;;;;;;51.03;21.00;;;;;;;-0.91;nan;100381.44;5010107;28;20038;-69
2021/12/04 02:24:41;;;;;;;42.42;19.23;;;;;;;-0.95;nan;100392.25;5012427;28;20128;-68
2021/12/04 02:27:27;;;;;;;37.63;18.17;;;;;;;-1.05;nan;100374.22;5015423;28;20034;-67
2021/12/04 02:30:17;;;;;;;39.53;18.75;;;;;;;-1.00;nan;100400.44;5014831;28;20092;-69
2021/12/04 02:33:11;;;;;;;37.30;16.88;;;;;;;-1.08;nan;100385.69;5012879;28;20038;-69
2021/12/04 02:35:57;;;;;;;38.45;16.65;;;;;;;-1.17;nan;100388.34;5010320;28;20069;-68
2021/12/04 02:38:49;;;;;;;34.38;16.27;;;;;;;-1.32;nan;100388.88;5016601;28;20116;-68
2021/12/04 02:41:35;;;;;;;38.80;17.33;;;;;;;-1.36;nan;100384.16;4998057;28;20042;-67
2021/12/04 02:44:24;;;;;;;41.75;18.73;;;;;;;-1.37;nan;100382.50;5015494;28;20040;-68
2021/12/04 02:47:09;;;;;;;37.88;17.08;;;;;;;-1.46;nan;100358.41;5006524;28;20049;-68
2021/12/04 02:49:56;;;;;;;38.80;17.50;;;;;;;-1.54;nan;100361.69;5015464;28;20045;-69
2021/12/04 02:52:43;;;;;;;41.88;18.90;;;;;;;-1.53;nan;100370.28;5014564;28;20040;-69
2021/12/04 02:55:29;;;;;;;53.47;22.15;;;;;;;-1.56;nan;100373.94;5012637;28;20041;-69
2021/12/04 02:58:16;;;;;;;44.15;19.20;;;;;;;-1.57;nan;100374.09;5013746;28;20057;-68
2021/12/04 03:01:03;;;;;;;44.50;20.15;;;;;;;-1.58;nan;100370.72;4999938;28;20072;-68
2021/12/04 03:03:48;;;;;;;38.83;18.38;;;;;;;-1.50;nan;100368.19;4998381;28;20403;-68
2021/12/04 03:06:43;;;;;;;37.78;17.50;;;;;;;-1.50;nan;100352.69;5013494;28;20041;-69
2021/12/04 03:09:29;;;;;;;37.83;16.38;;;;;;;-1.52;nan;100346.88;5001585;28;20037;-67
2021/12/04 03:12:19;;;;;;;35.85;17.48;;;;;;;-1.48;nan;100349.16;5010270;28;20057;-69
2021/12/04 03:15:05;;;;;;;;;;;;;;;-1.53;nan;100342.66;5022684;28;20573;-68
2021/12/04 03:17:51;;;;;;;39.78;16.88;;;;;;;-1.76;nan;100334.53;5015433;28;20004;-69
2021/12/04 03:20:42;;;;;;;40.72;16.63;;;;;;;-1.68;nan;100359.63;5015893;28;20522;-69
2021/12/04 03:23:30;;;;;;;41.05;18.15;;;;;;;-1.96;nan;100341.59;5013757;28;20037;-67
2021/12/04 03:26:16;;;;;;;33.88;16.55;;;;;;;-1.90;nan;100344.56;5016581;28;20061;-68
2021/12/04 03:29:06;;;;;;;35.50;17.23;;;;;;;-1.91;nan;100346.31;5001273;28;20044;-68
2021/12/04 03:40:54;;;;;;;42.90;18.58;;;;;;;-1.76;nan;100336.31;5013043;28;20041;-68
2021/12/04 03:43:40;;;;;;;40.65;18.75;;;;;;;-1.69;nan;100339.94;5011934;28;20485;-69
2021/12/04 03:46:26;;;;;;;36.45;16.60;;;;;;;-1.69;nan;100350.25;4998164;28;20033;-67
2021/12/04 03:49:12;;;;;;;38.58;17.33;;;;;;;-1.76;nan;100326.00;5011459;28;20030;-68
2021/12/04 03:51:57;;;;;;;38.28;17.60;;;;;;;-1.71;nan;100328.94;5012506;28;20041;-66
2021/12/04 03:54:44;;;;;;;33.67;16.52;;;;;;;-1.80;nan;100328.03;5005856;28;20049;-69
2021/12/04 03:57:30;;;;;;;41.05;16.77;;;;;;;-1.79;nan;100334.84;5015110;28;20046;-68
2021/12/04 04:00:18;;;;;;;39.67;18.35;;;;;;;-1.98;nan;100322.06;5013100;28;20458;-68
2021/12/04 04:03:04;;;;;;;41.92;18.33;;;;;;;-2.02;nan;100329.25;5006388;28;20504;-69
2021/12/04 04:05:49;;;;;;;42.65;17.95;;;;;;;-1.96;nan;100341.59;5016850;28;20041;-68
2021/12/04 04:08:35;;;;;;;40.80;18.95;;;;;;;-2.22;nan;100299.38;5031094;28;20503;-67
2021/12/04 04:11:21;;;;;;;41.70;18.10;;;;;;;-1.93;nan;100338.72;5011590;28;20645;-68
2021/12/04 04:14:07;;;;;;;40.75;17.27;;;;;;;-1.89;nan;100351.31;5010175;28;20100;-68
2021/12/04 04:16:55;;;;;;;44.25;18.20;;;;;;;-1.90;nan;100354.88;5011924;28;20128;-68
2021/12/04 04:19:41;;;;;;;39.75;18.98;;;;;;;-1.97;nan;100344.31;5004932;28;20045;-67
2021/12/04 04:22:26;;;;;;;48.40;20.58;;;;;;;-1.99;nan;100348.81;5011946;28;20041;-68
2021/12/04 04:25:14;;;;;;;47.35;20.00;;;;;;;-2.31;nan;100307.97;5007944;28;20034;-68
2021/12/04 04:27:59;;;;;;;44.92;19.17;;;;;;;-2.14;nan;100325.25;5011994;28;20073;-68
2021/12/04 04:30:46;;;;;;;49.08;20.90;;;;;;;-2.07;nan;100333.25;4997923;28;20099;-66
2021/12/04 04:33:36;;;;;;;50.88;21.38;;;;;;;-2.06;nan;100327.13;5011723;28;20034;-68
2021/12/04 04:57:44;;;;;;;39.78;18.75;;;;;;;-2.49;nan;100328.53;5010940;28;20050;-68
2021/12/04 05:12:45;;;;;;;43.38;20.65;;;;;;;-2.59;nan;100354.34;4950119;29;20510;-68
2021/12/04 05:19:11;;;;;;;49.83;19.92;;;;;;;-2.70;nan;100321.84;4955647;28;20396;-68
2021/12/04 05:21:57;;;;;;;49.75;21.77;;;;;;;-2.67;nan;100331.06;4953142;28;20050;-67
2021/12/04 05:24:43;;;;;;;51.55;21.48;;;;;;;-2.98;nan;100279.75;4959346;28;20031;-67
2021/12/04 05:27:29;;;;;;;55.35;22.13;;;;;;;-2.81;nan;100319.44;4956440;28;20405;-66
2021/12/04 05:30:15;;;;;;;47.95;22.10;;;;;;;-2.67;nan;100347.31;4955179;28;20454;-68
2021/12/04 05:33:01;;;;;;;48.55;21.27;;;;;;;-2.74;nan;100341.09;4949822;28;20047;-67
2021/12/04 05:35:48;;;;;;;47.67;22.10;;;;;;;-2.80;nan;100339.91;4952685;28;20047;-69
2021/12/04 05:38:35;;;;;;;51.95;23.77;;;;;;;-2.87;nan;100325.97;4949065;29;20739;-68
2021/12/04 05:41:21;;;;;;;48.10;22.42;;;;;;;-2.84;nan;100328.25;4949924;28;20032;-67
2021/12/04 05:44:09;;;;;;;49.03;21.73;;;;;;;-2.80;nan;100332.19;4949162;28;20537;-69
2021/12/04 05:47:46;;;;;;;44.10;20.17;;;;;;;-2.86;nan;100321.63;4999213;28;20115;-69
2021/12/04 05:55:52;;;;;;;35.72;16.15;;;;;;;-2.94;nan;100331.81;5008178;28;20377;-68
2021/12/04 05:58:38;;;;;;;37.33;15.50;;;;;;;-3.01;nan;100322.06;5006625;28;20038;-68
2021/12/04 06:01:25;;;;;;;34.33;15.02;;;;;;;-3.00;nan;100325.44;5004004;28;20094;-66
2021/12/04 06:04:10;;;;;;;36.65;14.20;;;;;;;-3.02;nan;100328.16;5011556;28;20068;-68
2021/12/04 06:06:56;;;;;;;31.88;14.60;;;;;;;-3.05;nan;100333.56;5012699;28;20091;-68
2021/12/04 06:09:42;;;;;;;33.83;13.90;;;;;;;-3.16;nan;100320.88;4998000;28;20026;-68
2021/12/04 06:12:28;;;;;;;29.90;13.27;;;;;;;-3.22;nan;100319.63;5012464;28;20030;-69
2021/12/04 06:15:13;;;;;;;32.40;15.18;;;;;;;-3.27;nan;100333.88;5014089;28;20065;-68
2021/12/04 06:17:59;;;;;;;33.08;15.95;;;;;;;-3.30;nan;100336.75;5009539;28;20099;-69
2021/12/04 06:23:49;;;;;;;38.92;16.60;;;;;;;-3.32;nan;100318.84;5013796;28;20038;-68
2021/12/04 06:26:36;;;;;;;38.78;16.55;;;;;;;-3.21;nan;100329.00;5013099;28;20628;-68
2021/12/04 06:29:24;;;;;;;35.15;15.02;;;;;;;-3.21;nan;100321.28;5013204;28;20554;-68
2021/12/04 06:32:09;;;;;;;33.95;14.52;;;;;;;-3.29;nan;100315.19;5004008;28;20120;-67
2021/12/04 06:34:55;;;;;;;57.38;20.65;;;;;;;-3.16;nan;100343.22;4995027;28;20412;-67
2021/12/04 06:37:41;;;;;;;63.10;22.92;;;;;;;-3.23;nan;100346.34;4993358;28;20107;-70
2021/12/04 06:40:27;;;;;;;74.22;25.45;;;;;;;-3.27;nan;100346.75;4985268;28;20048;-67
2021/12/04 06:43:14;;;;;;;82.53;27.33;;;;;;;-3.33;nan;100337.00;5013380;28;20126;-67
2021/12/04 06:46:02;;;;;;;71.47;25.65;;;;;;;-3.40;nan;100323.03;5013213;28;20084;-69
2021/12/04 06:49:03;;;;;;;67.82;25.25;;;;;;;-3.35;nan;100332.00;5014215;28;20069;-67
2021/12/04 06:51:53;;;;;;;61.72;24.40;;;;;;;-3.38;nan;100327.09;5012809;28;20038;-66
2021/12/04 06:54:42;;;;;;;57.42;23.30;;;;;;;-3.30;nan;100334.97;5011515;28;20061;-69
2021/12/04 06:57:29;;;;;;;56.78;23.05;;;;;;;-3.30;nan;100329.00;4997999;28;20119;-69
2021/12/04 07:00:15;;;;;;;70.80;25.27;;;;;;;-3.30;nan;100318.72;5011433;28;20041;-69
2021/12/04 07:03:01;;;;;;;64.68;25.52;;;;;;;-3.21;nan;100326.44;5019891;28;20026;-69
2021/12/04 07:05:47;;;;;;;70.75;24.33;;;;;;;-3.07;nan;100334.66;5012935;28;20033;-69
2021/12/04 07:08:33;;;;;;;60.17;24.60;;;;;;;-3.21;nan;100307.56;5013255;28;20038;-67
2021/12/04 07:11:18;;;;;;;58.85;24.50;;;;;;;-2.95;nan;100332.75;5020862;28;20503;-69
2021/12/04 07:14:04;;;;;;;62.85;24.17;;;;;;;-2.90;nan;100323.63;5018081;28;20045;-70
2021/12/04 07:16:51;;;;;;;57.50;23.45;;;;;;;-2.82;nan;100334.09;5012332;28;20578;-69
2021/12/04 07:19:37;;;;;;;51.97;21.92;;;;;;;-2.80;nan;100324.44;5011092;28;20030;-70
2021/12/04 07:22:22;;;;;;;59.50;23.05;;;;;;;-2.69;nan;100332.97;5011752;28;20041;-68
2021/12/04 07:25:08;;;;;;;56.13;22.10;;;;;;;-2.64;nan;100325.63;5030476;28;20076;-69
2021/12/04 07:27:54;;;;;;;60.17;24.17;;;;;;;-2.64;nan;100320.47;5014590;28;20515;-68
2021/12/04 07:30:41;;;;;;;64.05;24.88;;;;;;;-2.61;nan;100313.28;5011195;28;20048;-69
2021/12/04 07:33:27;;;;;;;71.85;27.67;;;;;;;-2.59;nan;100307.94;4997358;28;20037;-69
2021/12/04 07:36:13;;;;;;;71.60;27.98;;;;;;;-2.39;nan;100335.28;5012748;28;20037;-69
2021/12/04 07:39:00;;;;;;;58.72;26.10;;;;;;;-2.40;nan;100318.19;5008526;28;20056;-67
2021/12/04 07:41:46;;;;;;;59.85;23.67;;;;;;;-2.38;nan;100305.16;5011074;28;20487;-68
2021/12/04 07:44:32;;;;;;;51.13;22.58;;;;;;;-2.19;nan;100327.47;5010861;28;20034;-69
2021/12/04 07:47:18;;;;;;;54.78;23.38;;;;;;;-2.17;nan;100318.63;4986366;28;20041;-69
2021/12/04 07:50:09;;;;;;;49.08;23.00;;;;;;;-2.12;nan;100318.19;5010320;28;20041;-67
2021/12/04 07:52:55;;;;;;;49.67;21.25;;;;;;;-2.03;nan;100324.25;5002332;28;20034;-68
2021/12/04 07:55:41;;;;;;;47.83;22.10;;;;;;;-2.01;nan;100322.31;5006411;28;20041;-67
2021/12/04 07:58:27;;;;;;;48.05;22.08;;;;;;;-1.87;nan;100328.78;5016986;28;20053;-69
2021/12/04 08:01:13;;;;;;;50.55;22.48;;;;;;;-1.86;nan;100331.22;5007771;28;20037;-68
2021/12/04 08:03:59;;;;;;;51.63;24.98;;;;;;;-1.78;nan;100333.88;5011255;28;20038;-67
2021/12/04 08:06:45;;;;;;;59.13;27.05;;;;;;;-1.71;nan;100334.09;5011815;28;20033;-66
2021/12/04 08:09:30;;;;;;;51.55;24.77;;;;;;;-1.76;nan;100310.50;5010173;28;20037;-68
2021/12/04 08:12:16;;;;;;;58.55;26.10;;;;;;;-1.60;nan;100326.16;4981310;28;20041;-67
2021/12/04 08:15:04;;;;;;;53.38;25.60;;;;;;;-1.57;nan;100315.50;5010302;28;20504;-67
2021/12/04 08:17:50;;;;;;;51.38;25.33;;;;;;;-1.51;nan;100319.25;5013701;28;20072;-67
2021/12/04 08:20:36;;;;;;;55.33;25.38;;;;;;;-1.30;nan;100339.63;5010240;28;20042;-70
2021/12/04 08:23:22;;;;;;;53.17;25.00;;;;;;;-1.22;nan;100331.13;5021314;28;20041;-70
2021/12/04 08:26:08;;;;;;;59.42;25.85;;;;;;;-1.21;nan;100312.91;5001949;28;20192;-71
2021/12/04 08:28:54;;;;;;;59.20;27.27;;;;;;;-1.00;nan;100332.44;5008387;28;20063;-70
2021/12/04 08:31:41;;;;;;;61.83;28.08;;;;;;;-1.04;nan;100316.41;5011356;28;20026;-71
2021/12/04 08:34:27;;;;;;;57.58;26.48;;;;;;;-0.94;nan;100330.03;5011065;28;20026;-71
2021/12/04 08:37:13;;;;;;;55.72;25.35;;;;;;;-1.04;nan;100310.44;4991001;28;20050;-71
2021/12/04 08:39:59;;;;;;;47.88;23.58;;;;;;;-0.94;nan;100311.13;4991600;28;20116;-71
2021/12/04 08:42:47;;;;;;;49.25;24.50;;;;;;;-0.89;nan;100308.91;5010847;28;20034;-72
2021/12/04 08:45:33;;;;;;;46.42;22.00;;;;;;;-0.82;nan;100306.53;5011046;28;20025;-71
2021/12/04 08:48:19;;;;;;;52.80;24.40;;;;;;;-0.70;nan;100313.06;5011702;28;20120;-71
2021/12/04 08:51:05;;;;;;;56.03;23.17;;;;;;;-0.75;nan;100295.41;4981978;28;20044;-71
2021/12/04 08:53:52;;;;;;;43.55;20.20;;;;;;;-0.59;nan;100306.81;5011415;28;20480;-71
2021/12/04 08:56:38;;;;;;;53.92;24.17;;;;;;;-0.56;nan;100298.75;5011251;28;20058;-71
2021/12/04 08:59:24;;;;;;;46.63;22.90;;;;;;;-0.39;nan;100295.25;5009580;28;20108;-70
2021/12/04 09:02:10;;;;;;;42.67;21.15;;;;;;;-0.29;nan;100284.78;5010008;28;20065;-71
2021/12/04 09:04:57;;;;;;;39.47;20.02;;;;;;;-0.29;nan;100285.59;5010962;28;20044;-71
2021/12/04 09:07:44;;;;;;;43.28;21.08;;;;;;;-0.10;nan;100301.81;5010093;28;20119;-71
2021/12/04 09:10:30;;;;;;;41.53;20.90;;;;;;;-0.05;nan;100289.22;5012379;28;20040;-71
2021/12/04 09:13:16;;;;;;;50.05;21.05;;;;;;;-0.03;nan;100282.91;5010058;28;20570;-72
2021/12/04 09:16:03;;;;;;;46.50;21.67;;;;;;;0.08;nan;100284.41;5010884;28;20389;-71
2021/12/04 09:18:49;;;;;;;44.97;21.90;;;;;;;0.13;nan;100266.59;5010375;28;20503;-72
2021/12/04 09:21:37;;;;;;;41.40;19.75;;;;;;;0.26;nan;100276.47;5009812;28;20033;-70
2021/12/04 09:24:29;;;;;;;37.75;18.83;;;;;;;0.38;nan;100276.97;5009979;28;20041;-71
2021/12/04 09:28:01;;;;;;;41.20;19.67;;;;;;;0.32;nan;100260.31;4980517;28;20037;-72
2021/12/04 09:30:55;;;;;;;37.10;18.27;;;;;;;0.52;nan;100265.97;5006623;28;20049;-72
2021/12/04 10:01:27;;;;;;;42.28;20.15;;;;;;;1.58;nan;100215.59;5021777;28;20103;-74
2021/12/04 10:17:46;;;;;;;40.90;20.35;;;;;;;1.56;nan;100204.59;4987785;28;20030;-71
2021/12/04 10:20:14;;;;;;;41.08;20.63;;;;;;;1.59;nan;100195.66;5000172;28;20061;-71
2021/12/04 10:32:38;;;;;;;45.28;22.63;;;;;;;1.64;nan;100180.38;4991084;28;21259;-72
2021/12/04 10:35:25;;;;;;;54.45;25.65;;;;;;;1.71;nan;100186.47;4967174;28;20054;-72
2021/12/04 10:38:26;;;;;;;55.10;26.98;;;;;;;1.41;nan;100147.44;4985716;28;20579;-71
2021/12/04 10:41:13;;;;;;;79.18;35.17;;;;;;;1.59;nan;100162.72;4998948;28;20628;-72
2021/12/04 10:44:10;;;;;;;67.07;32.15;;;;;;;1.80;nan;100174.28;5018995;28;20038;-72
2021/12/04 10:47:10;;;;;;;59.97;29.60;;;;;;;1.81;nan;100166.28;5012027;28;20412;-72
2021/12/04 10:52:59;;;;;;;60.00;28.83;;;;;;;1.89;nan;100165.41;5012887;28;19913;-72
2021/12/04 10:59:12;;;;;;;55.35;26.05;;;;;;;1.91;nan;100161.66;5012027;28;20057;-72
2021/12/04 11:02:04;;;;;;;49.22;26.35;;;;;;;1.92;nan;100155.50;5004622;28;20038;-71
2021/12/04 11:05:01;;;;;;;53.28;26.88;;;;;;;1.87;nan;100123.28;4998750;28;20034;-70
2021/12/04 11:18:41;;;;;;;53.47;26.50;;;;;;;1.90;nan;100134.09;4984345;28;20030;-71
2021/12/04 11:45:25;;;;;;;41.13;21.17;;;;;;;2.81;nan;100102.03;5012067;28;20089;-72
2021/12/04 11:48:11;;;;;;;49.50;23.27;;;;;;;2.84;nan;100104.25;5011654;28;20601;-73
2021/12/04 11:50:57;;;;;;;45.50;23.88;;;;;;;2.62;nan;100083.38;5011059;28;20034;-72
2021/12/04 11:53:44;;;;;;;44.00;23.05;;;;;;;2.61;nan;100092.19;5001006;28;20195;-72
2021/12/04 11:56:30;;;;;;;43.83;21.60;;;;;;;2.42;nan;100071.91;5010631;28;20113;-73
2021/12/04 11:59:29;;;;;;;40.30;21.67;;;;;;;2.27;nan;100070.13;5011148;28;20111;-74
2021/12/04 12:02:23;;;;;;;46.67;21.60;;;;;;;2.86;nan;100178.50;4996525;28;20108;-71
2021/12/04 12:05:16;;;;;;;48.38;22.67;;;;;;;2.26;nan;100067.72;5011310;28;20038;-72
2021/12/04 12:08:02;;;;;;;46.72;22.25;;;;;;;2.19;nan;100049.44;5007235;28;20046;-72
2021/12/04 12:10:51;;;;;;;41.10;21.77;;;;;;;2.30;nan;100049.00;4998800;28;20070;-71
2021/12/04 12:13:49;;;;;;;26.08;14.23;;;;;;;2.52;nan;100064.66;5026938;28;20032;-74
2021/12/04 12:16:39;;;;;;;40.85;20.20;;;;;;;2.47;nan;100047.00;5011266;28;20129;-73
2021/12/04 12:19:36;;;;;;;41.30;19.60;;;;;;;2.42;nan;100049.34;4999995;28;20048;-71
2021/12/04 12:37:34;;;;;;;29.35;16.00;;;;;;;2.65;nan;100022.41;4932061;28;20127;-73
2021/12/04 12:40:27;;;;;;;29.15;15.32;;;;;;;2.47;nan;100023.63;4918285;29;20040;-74
2021/12/04 12:43:18;;;;;;;31.75;15.82;;;;;;;2.47;nan;100015.03;4915064;29;20036;-73
2021/12/04 12:46:05;;;;;;;30.05;15.55;;;;;;;2.57;nan;100015.53;4930172;29;20036;-73
2021/12/04 12:48:54;;;;;;;34.67;17.60;;;;;;;2.65;nan;100012.81;4922344;29;20083;-72
2021/12/04 12:51:40;;;;;;;31.10;16.40;;;;;;;2.38;nan;99997.91;4930903;29;20032;-72
2021/12/04 12:54:33;;;;;;;31.55;16.35;;;;;;;2.37;nan;99996.28;4931892;29;20039;-72
2021/12/04 12:57:23;;;;;;;41.92;17.92;;;;;;;2.50;nan;100012.84;4930385;29;20075;-71
2021/12/04 13:12:40;;;;;;;30.00;15.30;;;;;;;2.51;nan;99992.88;4924406;29;20036;-71
2021/12/04 13:15:36;;;;;;;27.58;13.63;;;;;;;2.51;nan;100000.66;5021289;28;20041;-72
2021/12/04 13:18:23;;;;;;;26.17;14.02;;;;;;;2.55;nan;99997.53;5028858;28;20103;-71
2021/12/04 13:21:10;;;;;;;25.30;12.35;;;;;;;2.54;nan;99992.53;5009876;28;20112;-73
2021/12/04 13:23:57;;;;;;;24.67;11.63;;;;;;;2.38;nan;99964.13;5011025;28;20034;-71
2021/12/04 13:26:47;;;;;;;23.52;12.15;;;;;;;2.65;nan;100012.81;5024658;28;20045;-73
2021/12/04 13:29:33;;;;;;;21.83;10.68;;;;;;;2.67;nan;100013.44;4990923;28;20111;-72
2021/12/04 13:32:32;;;;;;;22.05;10.45;;;;;;;2.65;nan;100007.63;4987797;28;20104;-73
2021/12/04 13:35:23;;;;;;;17.23;9.70;;;;;;;2.80;nan;100011.97;5007399;28;20050;-72
2021/12/04 13:38:09;;;;;;;20.90;10.43;;;;;;;2.67;nan;99991.84;5009622;28;20033;-74
2021/12/04 13:40:56;;;;;;;17.35;9.27;;;;;;;2.80;nan;100014.59;5011056;28;20080;-72
2021/12/04 13:43:48;;;;;;;18.55;10.77;;;;;;;2.79;nan;100010.38;5007076;28;20508;-70
2021/12/04 13:46:44;;;;;;;21.38;10.80;;;;;;;2.80;nan;100006.78;5012931;28;20059;-72
2021/12/04 13:49:39;;;;;;;22.70;11.85;;;;;;;2.43;nan;99965.19;5009945;28;20080;-73
2021/12/04 13:52:28;;;;;;;28.10;13.35;;;;;;;2.64;nan;99997.44;5024727;28;20124;-72
2021/12/04 13:55:16;;;;;;;23.80;12.93;;;;;;;2.79;nan;100013.78;4996958;28;20488;-75
2021/12/04 13:58:04;;;;;;;26.70;13.55;;;;;;;2.70;nan;99996.69;5008521;28;20056;-72
2021/12/04 14:00:50;;;;;;;29.25;13.02;;;;;;;2.67;nan;100003.06;4991237;28;20038;-72
2021/12/04 14:03:37;;;;;;;25.42;13.77;;;;;;;2.73;nan;99993.72;4999036;28;20460;-73
2021/12/04 14:06:24;;;;;;;27.05;14.10;;;;;;;2.66;nan;99980.66;5010789;28;20389;-73
2021/12/04 14:09:09;;;;;;;29.20;14.73;;;;;;;2.57;nan;99978.34;5010771;28;20030;-75
2021/12/04 14:11:55;;;;;;;25.75;14.85;;;;;;;2.59;nan;99984.97;4996611;28;20126;-74
2021/12/04 14:14:41;;;;;;;28.48;14.82;;;;;;;2.57;nan;99978.34;4995741;28;20026;-74
2021/12/04 14:17:28;;;;;;;24.70;13.43;;;;;;;2.63;nan;99988.81;5010680;28;20057;-75
2021/12/04 14:20:22;;;;;;;28.00;14.50;;;;;;;2.68;nan;99989.09;5009889;28;20045;-74
2021/12/04 14:23:09;;;;;;;29.08;14.63;;;;;;;2.58;nan;99975.56;5014131;28;20037;-74
2021/12/04 14:25:55;;;;;;;34.60;14.88;;;;;;;2.65;nan;99981.63;5013811;28;20065;-73
2021/12/04 14:28:44;;;;;;;33.67;15.70;;;;;;;2.74;nan;99996.13;5012631;28;20096;-74
2021/12/04 14:31:32;;;;;;;34.53;16.42;;;;;;;2.67;nan;99977.06;5013252;28;20041;-74
2021/12/04 14:34:23;;;;;;;38.13;20.05;;;;;;;2.73;nan;99975.50;4998477;28;20049;-73
2021/12/04 14:37:12;;;;;;;43.63;21.85;;;;;;;2.76;nan;99985.56;5012772;28;20030;-73
2021/12/04 14:39:58;;;;;;;34.40;18.92;;;;;;;2.62;nan;99952.63;5014010;28;20041;-76
2021/12/04 14:42:45;;;;;;;32.65;15.75;;;;;;;2.64;nan;99956.63;4999020;28;20606;-73
2021/12/04 14:45:33;;;;;;;30.67;15.68;;;;;;;2.72;nan;99968.72;5013760;28;20054;-74
2021/12/04 14:48:27;;;;;;;28.02;14.38;;;;;;;2.73;nan;99968.53;5000730;28;20064;-74
2021/12/04 14:51:16;;;;;;;27.35;14.48;;;;;;;2.69;nan;99962.09;4992890;28;20113;-74
2021/12/04 14:54:02;;;;;;;26.38;14.15;;;;;;;2.65;nan;99955.63;5004672;28;20033;-74
2021/12/04 14:56:48;;;;;;;30.98;14.45;;;;;;;2.67;nan;99964.06;4998927;28;20045;-74
2021/12/04 14:59:35;;;;;;;31.83;13.77;;;;;;;2.65;nan;99966.03;5013850;28;20048;-74
2021/12/04 15:02:22;;;;;;;31.83;14.23;;;;;;;2.61;nan;99964.81;5013104;28;20026;-74
2021/12/04 15:05:08;;;;;;;37.90;16.90;;;;;;;2.45;nan;99947.63;5013149;28;20480;-73
2021/12/04 15:08:11;;;;;;;50.00;22.75;;;;;;;2.46;nan;99957.03;4980050;28;20046;-74
2021/12/04 15:11:07;;;;;;;40.78;18.20;;;;;;;2.39;nan;99950.16;5003736;28;20403;-74
2021/12/04 15:14:03;;;;;;;40.30;18.33;;;;;;;2.36;nan;99948.72;5012910;28;20133;-74
2021/12/04 15:16:54;;;;;;;37.28;17.25;;;;;;;2.34;nan;99938.50;4992538;28;20042;-74
2021/12/04 15:19:42;;;;;;;40.38;16.58;;;;;;;2.31;nan;99928.47;4983971;28;20065;-73
2021/12/04 15:22:33;;;;;;;44.25;17.60;;;;;;;2.26;nan;99925.63;4999451;28;20042;-73
2021/12/04 15:25:21;;;;;;;39.70;17.67;;;;;;;2.33;nan;99941.31;5012282;28;20041;-74
2021/12/04 15:28:15;;;;;;;46.42;18.92;;;;;;;2.33;nan;99936.09;5012774;28;20507;-74
2021/12/04 15:31:03;;;;;;;44.47;20.80;;;;;;;1.91;nan;99891.63;5011448;28;20150;-74
2021/12/04 15:33:53;;;;;;;43.60;20.23;;;;;;;2.04;nan;99929.97;5012888;28;20030;-73
2021/12/04 15:36:45;;;;;;;44.08;20.27;;;;;;;1.99;nan;99934.91;5012543;28;20453;-73
2021/12/04 15:39:36;;;;;;;43.92;21.35;;;;;;;1.70;nan;99887.19;5012209;28;20113;-74
2021/12/04 15:42:33;;;;;;;47.67;22.38;;;;;;;1.83;nan;99906.53;5011895;28;20451;-74
2021/12/04 15:54:29;;;;;;;48.55;23.35;;;;;;;1.32;nan;99896.84;5006433;28;20038;-75
2021/12/04 15:57:20;;;;;;;57.05;24.73;;;;;;;1.27;nan;99902.53;5011270;28;20067;-74
2021/12/04 16:00:11;;;;;;;50.45;24.48;;;;;;;1.23;nan;99911.66;4978454;28;20049;-74
2021/12/04 16:03:01;;;;;;;63.85;25.58;;;;;;;1.18;nan;99919.16;5002645;28;20128;-74
2021/12/04 16:05:53;;;;;;;54.50;25.08;;;;;;;1.18;nan;99919.16;4998539;28;20095;-74
2021/12/04 16:08:41;;;;;;;48.33;22.77;;;;;;;1.18;nan;99926.13;4993263;28;20401;-73
2021/12/04 16:11:37;;;;;;;50.58;23.67;;;;;;;1.09;nan;99912.44;5003085;28;20135;-72
2021/12/04 16:14:28;;;;;;;44.67;21.40;;;;;;;1.16;nan;99925.50;5009436;28;20030;-74
2021/12/04 16:17:14;;;;;;;41.75;19.90;;;;;;;1.15;nan;99919.50;4977685;28;20053;-74
2021/12/04 16:20:05;;;;;;;44.70;21.92;;;;;;;1.06;nan;99903.22;5001192;28;20108;-74
2021/12/04 16:22:52;;;;;;;43.38;20.73;;;;;;;1.01;nan;99902.94;5011207;28;20052;-74
2021/12/04 16:25:39;;;;;;;39.55;20.17;;;;;;;0.82;nan;99887.88;4992536;28;20042;-74
2021/12/04 16:31:41;;;;;;;;;;;;;;;0.79;nan;99916.69;5011450;28;20034;-74